Time;durP1;ratioP1;P1;durP2;ratioP2;P2;SDS_P1;SDS_P2;PMS_P1;PMS_P2;Temp;Humidity;BMP_temperature;BMP_pressure;BME280_temperature;BME280_humidity;BME280_pressure;Samples;Min_cycle;Max_cycle;Signal;HPM_P1;HPM_P2
2023/08/14 00:02:22;;;;;;;10.15;3.65;;;;;;;16.14;98.00;100526.03;5064445;28;20028;-59
2023/08/14 00:04:48;;;;;;;10.00;3.25;;;;;;;16.12;98.01;100522.59;5064932;28;20021;-60
2023/08/14 00:07:13;;;;;;;7.28;3.25;;;;;;;16.08;98.43;100514.00;5067503;28;20025;-60
2023/08/14 00:09:39;;;;;;;4.50;2.95;;;;;;;16.00;98.23;100518.59;5068849;28;20028;-59
2023/08/14 00:12:05;;;;;;;6.32;3.25;;;;;;;16.01;98.69;100522.91;5068341;28;20036;-60
2023/08/14 00:14:30;;;;;;;6.72;3.50;;;;;;;15.98;99.07;100530.84;5068679;28;20021;-59
2023/08/14 00:16:56;;;;;;;9.50;2.83;;;;;;;15.97;99.53;100534.34;5068618;28;20044;-60
2023/08/14 00:19:21;;;;;;;5.88;3.65;;;;;;;15.95;99.41;100530.91;5068222;28;20508;-60
2023/08/14 00:21:47;;;;;;;7.72;4.13;;;;;;;15.94;99.54;100527.44;5068329;28;20021;-60
2023/08/14 00:24:12;;;;;;;10.93;4.50;;;;;;;15.94;99.34;100530.06;5068193;28;20032;-59
2023/08/14 00:26:37;;;;;;;9.77;4.53;;;;;;;15.93;99.53;100527.47;5068352;28;20021;-59
2023/08/14 00:29:03;;;;;;;8.85;3.90;;;;;;;15.88;99.49;100525.00;5068270;28;20027;-60
2023/08/14 00:31:28;;;;;;;6.15;3.20;;;;;;;15.88;99.74;100526.78;5068262;28;20027;-59
2023/08/14 00:33:54;;;;;;;4.53;3.33;;;;;;;15.92;99.67;100538.88;5068264;28;20024;-60
2023/08/14 00:36:19;;;;;;;5.50;3.38;;;;;;;15.93;99.83;100533.59;5068354;28;20024;-61
2023/08/14 00:38:45;;;;;;;11.77;3.97;;;;;;;15.94;99.97;100530.06;5067986;28;20057;-60
2023/08/14 00:41:10;;;;;;;13.20;3.85;;;;;;;15.91;99.85;100524.91;5068088;28;20021;-60
2023/08/14 00:43:35;;;;;;;11.30;4.30;;;;;;;15.93;99.91;100538.81;5067778;28;20047;-60
2023/08/14 00:46:01;;;;;;;11.73;3.42;;;;;;;15.91;100.00;100527.53;5068017;28;20021;-60
2023/08/14 00:48:27;;;;;;;4.25;2.65;;;;;;;15.90;100.00;100524.94;5067981;28;20036;-60
2023/08/14 00:50:55;;;;;;;4.97;3.83;;;;;;;15.89;100.00;100531.09;5067955;28;20025;-60
2023/08/14 00:53:25;;;;;;;6.55;3.17;;;;;;;15.84;100.00;100534.72;5067761;28;20036;-59
2023/08/14 00:55:50;;;;;;;13.02;2.83;;;;;;;15.83;100.00;100540.84;5067836;28;20029;-59
2023/08/14 00:58:16;;;;;;;4.20;2.83;;;;;;;15.81;100.00;100537.44;5067481;28;20024;-59
2023/08/14 01:00:43;;;;;;;4.65;3.05;;;;;;;15.83;99.98;100540.84;5067756;28;20025;-60
2023/08/14 01:03:09;;;;;;;4.45;3.03;;;;;;;15.86;100.00;100545.97;5067364;28;20313;-59
2023/08/14 01:05:34;;;;;;;2.92;1.92;;;;;;;15.85;99.82;100540.78;5067916;28;20024;-60
2023/08/14 01:08:00;;;;;;;9.63;2.80;;;;;;;15.84;99.88;100534.72;5067320;28;20021;-60
2023/08/14 01:10:44;;;;;;;3.70;2.47;;;;;;;15.89;100.00;100541.56;5067625;28;20021;-60
2023/08/14 01:13:21;;;;;;;5.97;2.83;;;;;;;15.94;99.74;100544.91;5067151;28;20295;-61
2023/08/14 01:15:51;;;;;;;6.47;2.70;;;;;;;15.96;99.57;100554.44;5067589;28;20027;-59
2023/08/14 01:18:19;;;;;;;4.80;3.10;;;;;;;15.98;99.87;100550.06;5067007;28;20477;-60
2023/08/14 01:21:14;;;;;;;5.63;2.90;;;;;;;16.02;99.93;100557.81;5066044;28;20025;-59
2023/08/14 01:23:52;;;;;;;6.22;2.55;;;;;;;16.03;99.73;100543.81;5061923;28;20029;-59
2023/08/14 01:26:18;;;;;;;7.93;2.95;;;;;;;16.05;99.56;100549.88;5067180;28;20102;-60
2023/08/14 01:28:45;;;;;;;7.95;2.92;;;;;;;16.07;99.85;100556.78;5066954;28;20032;-59
2023/08/14 01:31:10;;;;;;;6.18;2.35;;;;;;;16.14;99.51;100553.97;5067187;28;20171;-59
2023/08/14 01:33:35;;;;;;;9.45;3.17;;;;;;;16.16;99.34;100554.78;5066903;28;20112;-59
2023/08/14 01:36:23;;;;;;;6.43;2.63;;;;;;;16.18;99.59;100558.25;5067166;28;20021;-60
2023/08/14 01:38:54;;;;;;;4.15;2.30;;;;;;;16.18;99.30;100558.25;5066653;28;20045;-59
2023/08/14 01:41:28;;;;;;;3.25;2.38;;;;;;;16.21;99.15;100550.28;5066976;28;20050;-59
2023/08/14 01:43:57;;;;;;;9.15;2.92;;;;;;;16.23;99.15;100556.31;5066724;28;20040;-59
2023/08/14 01:46:25;;;;;;;3.58;2.53;;;;;;;16.25;99.11;100553.66;5066823;28;20025;-59
2023/08/14 01:48:52;;;;;;;10.80;2.08;;;;;;;16.26;99.21;100544.91;5066906;28;20031;-60
2023/08/14 01:51:19;;;;;;;3.63;2.30;;;;;;;16.31;99.36;100550.88;5066782;28;20025;-61
2023/08/14 01:53:46;;;;;;;5.68;2.72;;;;;;;16.31;99.29;100549.09;5066679;28;20048;-60
2023/08/14 01:56:12;;;;;;;6.05;2.63;;;;;;;16.34;98.88;100549.00;5066757;28;20334;-59
2023/08/14 01:58:38;;;;;;;1.95;1.75;;;;;;;16.37;98.97;100548.06;5066291;28;20025;-60
2023/08/14 02:01:03;;;;;;;6.68;2.58;;;;;;;16.39;98.79;100545.41;5065634;28;20089;-60
2023/08/14 02:03:29;;;;;;;6.03;2.55;;;;;;;16.42;98.54;100550.53;5065388;28;20095;-60
2023/08/14 02:05:55;;;;;;;11.48;2.67;;;;;;;16.42;98.85;100548.75;5066337;28;20542;-60
2023/08/14 02:08:21;;;;;;;6.13;2.08;;;;;;;16.38;98.94;100543.66;5066194;28;20032;-60
2023/08/14 02:10:46;;;;;;;7.55;2.42;;;;;;;16.43;98.64;100541.75;5066605;28;20046;-60
2023/08/14 02:13:12;;;;;;;4.68;2.30;;;;;;;16.42;98.48;100550.53;5066003;28;20122;-60
2023/08/14 02:15:37;;;;;;;8.98;1.73;;;;;;;16.41;98.33;100544.44;5066345;28;20021;-60
2023/08/14 02:18:03;;;;;;;5.82;3.25;;;;;;;16.42;97.99;100542.69;5066340;28;20017;-60
2023/08/14 02:20:28;;;;;;;4.32;2.58;;;;;;;16.38;98.16;100546.28;5066273;28;20437;-59
2023/08/14 02:22:54;;;;;;;3.92;2.28;;;;;;;16.42;98.04;100550.53;5066320;28;20025;-59
2023/08/14 02:25:19;;;;;;;8.80;2.83;;;;;;;16.40;97.97;100554.97;5066224;28;20021;-60
2023/08/14 02:27:44;;;;;;;8.32;2.53;;;;;;;16.39;97.85;100553.25;5065850;28;20535;-60
2023/08/14 02:30:10;;;;;;;5.45;2.92;;;;;;;16.35;97.83;100542.88;5065550;28;20032;-60
2023/08/14 02:32:36;;;;;;;3.92;1.85;;;;;;;16.32;97.77;100545.59;5065797;28;20077;-60
2023/08/14 02:35:01;;;;;;;6.97;2.50;;;;;;;16.30;97.81;100549.13;5066264;28;20063;-60
2023/08/14 02:37:26;;;;;;;1.95;1.67;;;;;;;16.22;97.63;100542.38;5065945;28;20055;-59
2023/08/14 02:39:52;;;;;;;3.13;2.10;;;;;;;16.21;98.03;100547.66;5065700;28;20048;-60
2023/08/14 02:42:19;;;;;;;8.63;2.78;;;;;;;16.19;97.77;100544.22;5065564;28;20032;-60
2023/08/14 02:44:45;;;;;;;4.00;2.47;;;;;;;16.15;98.01;100540.00;5065960;28;20029;-59
2023/08/14 02:47:10;;;;;;;6.57;2.28;;;;;;;16.17;97.96;100533.78;5065639;28;20098;-61
2023/08/14 02:49:35;;;;;;;12.27;2.88;;;;;;;16.19;98.00;100536.38;5065830;28;20032;-60
2023/08/14 02:52:01;;;;;;;6.10;2.08;;;;;;;16.18;97.53;100530.25;5065667;28;20028;-59
2023/08/14 02:54:27;;;;;;;9.48;2.30;;;;;;;16.14;97.38;100530.41;5064576;28;20031;-59
2023/08/14 02:56:52;;;;;;;5.03;2.10;;;;;;;16.07;97.18;100530.59;5064391;28;20021;-59
2023/08/14 02:59:18;;;;;;;4.55;2.55;;;;;;;16.03;96.90;100536.84;5065254;28;20075;-59
2023/08/14 03:01:43;;;;;;;9.30;2.53;;;;;;;15.96;96.95;100536.09;5065654;28;20033;-59
2023/08/14 03:04:09;;;;;;;3.38;2.13;;;;;;;15.89;97.00;100544.19;5065460;28;20040;-60
2023/08/14 03:06:34;;;;;;;8.18;2.30;;;;;;;15.82;97.20;100536.50;5065300;28;20032;-60
2023/08/14 03:09:00;;;;;;;5.22;2.53;;;;;;;15.81;96.97;100531.31;5065552;28;20028;-60
2023/08/14 03:11:26;;;;;;;4.50;2.22;;;;;;;15.76;96.75;100541.91;5065377;28;20017;-59
2023/08/14 03:13:52;;;;;;;7.05;2.50;;;;;;;15.73;96.74;100531.53;5065267;28;20055;-60
2023/08/14 03:16:17;;;;;;;5.40;2.40;;;;;;;15.69;96.61;100537.75;5065398;28;20021;-60
2023/08/14 03:18:43;;;;;;;9.23;2.35;;;;;;;15.70;96.63;100542.09;5065426;28;20051;-59
2023/08/14 03:21:09;;;;;;;2.90;2.50;;;;;;;15.66;96.87;100540.44;5065403;28;20092;-59
2023/08/14 03:23:35;;;;;;;3.72;2.28;;;;;;;15.60;96.77;100536.25;5065180;28;20484;-60
2023/08/14 03:26:02;;;;;;;3.42;2.58;;;;;;;15.58;96.96;100544.16;5065083;28;20085;-60
2023/08/14 03:28:27;;;;;;;3.67;2.38;;;;;;;15.55;96.94;100533.75;5064968;28;20097;-60
2023/08/14 03:30:53;;;;;;;9.82;3.10;;;;;;;15.53;97.11;100539.94;5065294;28;20025;-59
2023/08/14 03:33:18;;;;;;;4.53;2.83;;;;;;;15.49;97.07;100545.25;5065161;28;20033;-60
2023/08/14 03:35:43;;;;;;;5.13;2.58;;;;;;;15.48;97.04;100548.75;5065205;28;20056;-59
2023/08/14 03:38:09;;;;;;;4.90;2.22;;;;;;;15.46;96.96;100544.47;5064760;28;20065;-59
2023/08/14 03:40:34;;;;;;;3.15;2.35;;;;;;;15.47;97.12;100540.97;5067121;28;20016;-59
2023/08/14 03:43:00;;;;;;;6.95;2.53;;;;;;;15.47;96.89;100551.41;5069139;28;20051;-59
2023/08/14 03:45:25;;;;;;;2.88;2.15;;;;;;;15.50;96.85;100543.50;5069336;28;20029;-60
2023/08/14 03:47:50;;;;;;;5.07;2.38;;;;;;;15.36;97.20;100530.78;5069005;28;20040;-60
2023/08/14 03:50:16;;;;;;;3.65;2.10;;;;;;;15.50;97.61;100553.94;5069305;28;20036;-59
2023/08/14 03:52:41;;;;;;;7.68;2.50;;;;;;;15.50;97.45;100561.81;5068927;28;20029;-58
2023/08/14 03:55:07;;;;;;;3.65;2.53;;;;;;;15.51;97.82;100563.50;5069131;28;20048;-59
2023/08/14 03:57:33;;;;;;;2.00;1.63;;;;;;;15.53;97.95;100566.94;5068747;28;20088;-59
2023/08/14 03:59:58;;;;;;;10.57;2.08;;;;;;;15.59;97.89;100573.81;5067688;28;20025;-59
2023/08/14 04:02:24;;;;;;;4.65;2.05;;;;;;;15.61;98.00;100564.13;5068960;28;20032;-60
2023/08/14 04:04:49;;;;;;;3.42;1.98;;;;;;;15.65;97.64;100568.41;5067662;28;20450;-59
2023/08/14 04:07:15;;;;;;;10.60;2.90;;;;;;;15.72;97.60;100579.53;5068682;28;20033;-59
2023/08/14 04:09:40;;;;;;;4.07;2.30;;;;;;;15.71;97.79;100565.59;5068884;28;20029;-59
2023/08/14 04:12:06;;;;;;;3.83;2.33;;;;;;;15.76;97.69;100577.69;5068599;28;20081;-58
2023/08/14 04:14:32;;;;;;;4.32;2.35;;;;;;;15.74;98.11;100575.13;5067534;28;20049;-59
2023/08/14 04:16:58;;;;;;;4.85;2.10;;;;;;;15.80;97.81;100569.72;5068830;28;20051;-60
2023/08/14 04:19:24;;;;;;;5.15;2.40;;;;;;;15.82;97.53;100570.53;5068620;28;20049;-60
2023/08/14 04:21:49;;;;;;;6.57;3.03;;;;;;;15.87;97.69;100583.50;5068481;28;20104;-60
2023/08/14 04:24:14;;;;;;;5.93;3.05;;;;;;;15.86;97.76;100563.47;5068328;28;20332;-59
2023/08/14 04:26:40;;;;;;;13.60;3.17;;;;;;;15.91;97.56;100572.03;5068446;28;20036;-60
2023/08/14 04:29:07;;;;;;;3.28;1.90;;;;;;;15.93;97.38;100564.13;5068360;28;20021;-59
2023/08/14 04:31:37;;;;;;;3.08;2.40;;;;;;;15.93;97.60;100558.91;5068712;28;20028;-60
2023/08/14 04:34:03;;;;;;;3.08;2.40;;;;;;;15.98;97.39;100572.75;5068350;28;20021;-60
2023/08/14 04:36:31;;;;;;;2.78;2.42;;;;;;;15.97;97.28;100555.31;5067906;28;20017;-59
2023/08/14 04:38:56;;;;;;;6.75;2.88;;;;;;;15.92;97.56;100555.44;5067573;28;20067;-60
2023/08/14 04:41:22;;;;;;;5.63;2.83;;;;;;;15.97;97.84;100556.19;5066826;28;20017;-60
2023/08/14 04:43:47;;;;;;;7.22;3.10;;;;;;;15.99;97.69;100558.75;5067970;28;20469;-59
2023/08/14 04:46:31;;;;;;;5.22;2.28;;;;;;;16.02;97.64;100563.06;5068125;28;20181;-59
2023/08/14 04:48:57;;;;;;;11.23;2.47;;;;;;;16.06;97.67;100570.78;5068108;28;20052;-60
2023/08/14 04:51:22;;;;;;;7.60;2.97;;;;;;;16.10;97.45;100561.09;5067257;28;20048;-59
2023/08/14 04:53:48;;;;;;;7.63;2.97;;;;;;;16.17;97.80;100567.84;5067583;28;20052;-60
2023/08/14 04:56:13;;;;;;;8.02;2.90;;;;;;;16.18;97.39;100547.75;5068026;28;20086;-59
2023/08/14 04:58:39;;;;;;;8.25;3.10;;;;;;;16.20;97.63;100538.94;5067566;28;20039;-60
2023/08/14 05:01:04;;;;;;;8.60;2.75;;;;;;;16.16;97.06;100546.94;5068043;28;20020;-60
2023/08/14 05:03:29;;;;;;;6.72;2.80;;;;;;;16.16;97.27;100558.28;5067708;28;20017;-59
2023/08/14 05:05:55;;;;;;;4.80;2.47;;;;;;;16.17;97.26;100559.13;5067651;28;20025;-59
2023/08/14 05:08:20;;;;;;;6.93;2.10;;;;;;;16.19;97.43;100559.94;5067761;28;20021;-59
2023/08/14 05:10:50;;;;;;;3.78;2.33;;;;;;;16.20;97.49;100569.50;5067735;28;20021;-60
2023/08/14 05:13:16;;;;;;;15.23;3.55;;;;;;;16.19;97.14;100573.03;5067376;28;20024;-61
2023/08/14 05:15:42;;;;;;;5.93;3.25;;;;;;;16.21;97.78;100568.63;5067790;28;20036;-59
2023/08/14 05:18:07;;;;;;;3.97;2.33;;;;;;;16.24;97.64;100573.78;5067274;28;20496;-59
2023/08/14 05:20:33;;;;;;;6.63;3.45;;;;;;;16.27;97.23;100576.28;5067577;28;20025;-60
2023/08/14 05:22:59;;;;;;;8.13;2.88;;;;;;;16.28;97.68;100564.91;5067064;28;20038;-60
2023/08/14 05:25:24;;;;;;;4.18;3.22;;;;;;;16.34;97.10;100563.88;5067488;28;20025;-59
2023/08/14 05:27:49;;;;;;;5.43;2.50;;;;;;;16.34;97.22;100567.34;5067017;28;20032;-59
2023/08/14 05:30:15;;;;;;;7.95;3.15;;;;;;;16.32;97.16;100569.16;5067018;28;20103;-60
2023/08/14 05:32:41;;;;;;;5.25;2.22;;;;;;;16.32;97.27;100573.53;5067374;28;20029;-61
2023/08/14 05:35:07;;;;;;;8.75;3.00;;;;;;;16.31;97.15;100572.66;5067461;28;20048;-59
2023/08/14 05:37:32;;;;;;;3.72;2.38;;;;;;;16.31;97.21;100580.53;5067180;28;20017;-59
2023/08/14 05:39:58;;;;;;;3.17;2.13;;;;;;;16.18;96.79;100558.25;5067078;28;20486;-59
2023/08/14 05:42:23;;;;;;;10.85;3.10;;;;;;;16.28;97.31;100585.03;5066914;28;20494;-59
2023/08/14 05:44:48;;;;;;;4.50;2.47;;;;;;;16.28;97.29;100583.25;5067188;28;20466;-60
2023/08/14 05:47:14;;;;;;;9.38;3.30;;;;;;;16.30;97.31;100578.81;5067014;28;20029;-60
2023/08/14 05:49:39;;;;;;;11.75;3.38;;;;;;;16.41;97.54;100588.09;5066922;28;20109;-60
2023/08/14 05:52:05;;;;;;;5.95;2.45;;;;;;;16.46;97.44;100587.09;5067120;28;20078;-60
2023/08/14 05:54:30;;;;;;;8.43;2.78;;;;;;;16.48;97.26;100579.19;5066889;28;20029;-60
2023/08/14 05:56:55;;;;;;;11.77;2.95;;;;;;;16.54;97.64;100578.13;5066913;28;20023;-59
2023/08/14 05:59:21;;;;;;;18.10;3.97;;;;;;;16.64;97.63;100579.56;5066571;28;20098;-59
2023/08/14 06:01:46;;;;;;;2.80;2.47;;;;;;;16.70;97.58;100583.75;5065695;28;20083;-60
2023/08/14 06:04:12;;;;;;;7.43;3.60;;;;;;;16.84;97.55;100588.53;5065142;28;20025;-60
2023/08/14 06:06:37;;;;;;;4.07;2.65;;;;;;;16.91;97.82;100579.59;5066702;28;20077;-60
2023/08/14 06:09:03;;;;;;;5.85;2.85;;;;;;;17.12;97.63;100592.06;5066595;28;20029;-60
2023/08/14 06:11:28;;;;;;;3.45;2.85;;;;;;;17.18;97.52;100591.88;5066659;28;20028;-60
2023/08/14 06:13:54;;;;;;;4.55;3.33;;;;;;;17.25;97.46;100601.28;5066416;28;20047;-60
2023/08/14 06:16:19;;;;;;;4.32;3.13;;;;;;;17.31;97.55;100597.56;5066802;28;20082;-59
2023/08/14 06:18:44;;;;;;;9.25;3.03;;;;;;;17.36;97.27;100600.03;5066403;28;20458;-60
2023/08/14 06:21:10;;;;;;;4.45;2.83;;;;;;;17.33;97.52;100593.97;5066515;28;20048;-60
2023/08/14 06:23:35;;;;;;;11.27;3.08;;;;;;;17.42;97.43;100594.56;5066421;28;20028;-60
2023/08/14 06:26:01;;;;;;;6.82;2.83;;;;;;;17.54;96.99;100596.78;5066352;28;20017;-59
2023/08/14 06:28:26;;;;;;;7.80;2.90;;;;;;;17.61;97.40;100594.81;5065769;28;20028;-60
2023/08/14 06:30:52;;;;;;;3.88;3.10;;;;;;;17.76;97.33;100597.81;5066508;28;20104;-59
2023/08/14 06:33:17;;;;;;;13.05;3.33;;;;;;;17.77;96.61;100596.88;5065939;28;20485;-60
2023/08/14 06:35:42;;;;;;;9.98;2.55;;;;;;;17.88;95.93;100604.38;5066360;28;20108;-59
2023/08/14 06:38:08;;;;;;;3.90;2.58;;;;;;;17.92;95.85;100608.63;5065959;28;20485;-61
2023/08/14 06:40:33;;;;;;;3.30;2.22;;;;;;;17.87;94.69;100614.03;5066152;28;20021;-60
2023/08/14 06:42:59;;;;;;;3.08;2.67;;;;;;;17.77;94.02;100618.75;5065838;28;20032;-59
2023/08/14 06:45:24;;;;;;;10.32;3.10;;;;;;;17.71;93.68;100617.22;5066103;28;20029;-59
2023/08/14 06:47:50;;;;;;;5.80;2.78;;;;;;;17.65;93.11;100619.19;5065796;28;20021;-59
2023/08/14 06:50:16;;;;;;;3.17;2.08;;;;;;;17.56;93.18;100623.84;5066063;28;20539;-60
2023/08/14 06:52:41;;;;;;;8.32;2.85;;;;;;;17.44;92.76;100621.63;5065792;28;20032;-59
2023/08/14 06:55:07;;;;;;;3.22;2.10;;;;;;;17.38;92.78;100624.47;5065740;28;20084;-60
2023/08/14 06:57:33;;;;;;;4.57;1.88;;;;;;;17.27;93.06;100620.44;5065628;28;20024;-59
2023/08/14 07:00:05;;;;;;;6.93;2.30;;;;;;;17.13;92.96;100620.88;5065657;28;20029;-60
2023/08/14 07:02:30;;;;;;;6.15;2.20;;;;;;;17.05;93.42;100630.72;5065634;28;20025;-61
2023/08/14 07:04:56;;;;;;;5.32;2.17;;;;;;;17.01;93.49;100624.75;5065553;28;20044;-59
2023/08/14 07:07:21;;;;;;;4.35;1.90;;;;;;;17.05;93.35;100625.47;5065676;28;20024;-60
2023/08/14 07:09:46;;;;;;;2.30;2.00;;;;;;;17.04;93.56;100637.75;5065678;28;20033;-60
2023/08/14 07:12:12;;;;;;;6.90;2.45;;;;;;;17.06;93.71;100635.09;5064182;28;20033;-59
2023/08/14 07:14:37;;;;;;;9.93;3.33;;;;;;;16.99;93.68;100631.78;5065181;28;20029;-60
2023/08/14 07:17:03;;;;;;;5.80;1.70;;;;;;;17.06;93.44;100635.91;5065531;28;20028;-59
2023/08/14 07:19:28;;;;;;;4.72;1.70;;;;;;;17.03;93.48;100636.03;5065625;28;20017;-60
2023/08/14 07:21:53;;;;;;;4.03;2.03;;;;;;;17.06;93.20;100635.09;5065534;28;20473;-61
2023/08/14 07:24:19;;;;;;;2.85;1.63;;;;;;;16.95;93.38;100645.88;5065191;28;20024;-61
2023/08/14 07:26:44;;;;;;;4.90;2.35;;;;;;;16.84;92.67;100641.84;5065379;28;20021;-60
2023/08/14 07:29:10;;;;;;;1.50;1.25;;;;;;;16.74;92.37;100635.19;5065238;28;20033;-61
2023/08/14 07:31:35;;;;;;;2.63;1.33;;;;;;;16.71;92.55;100632.63;5065580;28;20021;-60
2023/08/14 07:34:00;;;;;;;7.40;2.08;;;;;;;16.63;92.60;100634.66;5065212;28;20117;-60
2023/08/14 07:36:26;;;;;;;3.95;1.67;;;;;;;16.57;92.62;100635.69;5065276;28;20049;-61
2023/08/14 07:38:51;;;;;;;4.53;1.67;;;;;;;16.48;93.17;100637.66;5065142;28;20103;-60
2023/08/14 07:41:17;;;;;;;2.13;1.35;;;;;;;16.57;92.69;100639.16;5065235;28;20029;-61
2023/08/14 07:43:42;;;;;;;2.90;1.27;;;;;;;16.61;93.30;100632.09;5064981;28;20057;-60
2023/08/14 07:46:08;;;;;;;4.25;1.50;;;;;;;16.67;93.26;100638.88;5015525;23;20503;-72
2023/08/14 07:48:33;;;;;;;4.10;1.40;;;;;;;16.76;93.23;100646.47;5003612;28;20031;-72
2023/08/14 07:50:59;;;;;;;3.85;1.75;;;;;;;16.82;92.94;100643.66;5005322;28;20192;-72
2023/08/14 07:53:24;;;;;;;1.10;0.98;;;;;;;16.79;92.92;100649.00;5005442;28;20030;-72
2023/08/14 07:55:49;;;;;;;3.47;1.55;;;;;;;16.83;92.37;100640.16;5004334;28;20091;-73
2023/08/14 07:58:16;;;;;;;3.67;1.30;;;;;;;17.01;91.97;100643.09;5005399;28;20082;-73
2023/08/14 08:00:42;;;;;;;2.83;1.35;;;;;;;17.27;92.42;100643.19;5005608;28;20022;-72
2023/08/14 08:03:08;;;;;;;1.25;0.95;;;;;;;17.61;92.35;100646.44;5003995;28;20022;-74
2023/08/14 08:05:33;;;;;;;5.97;1.58;;;;;;;18.07;93.56;100644.81;5005396;28;20018;-73
2023/08/14 08:08:01;;;;;;;3.75;1.85;;;;;;;18.97;93.61;100638.88;5005558;28;20019;-72
2023/08/14 08:10:26;;;;;;;3.70;1.80;;;;;;;19.67;91.90;100634.28;5005485;28;20105;-72
2023/08/14 08:12:52;;;;;;;2.45;1.73;;;;;;;20.29;92.04;100632.50;5004726;28;20022;-71
2023/08/14 08:15:17;;;;;;;6.88;2.15;;;;;;;20.87;90.94;100635.09;5004692;28;20034;-72
2023/08/14 08:17:43;;;;;;;3.08;1.80;;;;;;;21.09;89.74;100642.00;5004895;28;20050;-72
2023/08/14 08:20:09;;;;;;;2.95;1.63;;;;;;;21.08;85.04;100643.78;5033059;23;20152;-61
2023/08/14 08:22:34;;;;;;;3.78;1.63;;;;;;;20.95;83.58;100642.66;5025195;28;20037;-60
2023/08/14 08:24:59;;;;;;;3.47;1.80;;;;;;;20.73;81.08;100641.91;5024999;28;20022;-61
2023/08/14 08:27:25;;;;;;;2.38;1.30;;;;;;;20.42;79.58;100640.69;5026546;28;20030;-61
2023/08/14 08:29:50;;;;;;;10.18;1.92;;;;;;;20.19;78.73;100650.53;5028655;28;20025;-60
2023/08/14 08:32:16;;;;;;;2.22;2.03;;;;;;;19.81;78.10;100656.50;5028754;28;20109;-61
2023/08/14 08:34:41;;;;;;;2.53;1.63;;;;;;;19.50;79.31;100650.81;5028557;28;20459;-61
2023/08/14 08:37:06;;;;;;;1.98;1.63;;;;;;;19.39;81.08;100650.41;5028566;28;20485;-60
2023/08/14 08:39:32;;;;;;;4.25;2.20;;;;;;;19.35;80.89;100648.78;5028635;28;20026;-61
2023/08/14 08:41:58;;;;;;;6.45;1.75;;;;;;;19.30;81.77;100646.34;5043649;28;20074;-60
2023/08/14 08:44:32;;;;;;;6.47;2.92;;;;;;;19.39;82.72;100645.13;5048224;22;20059;-60
2023/08/14 08:47:09;;;;;;;6.57;2.20;;;;;;;19.60;82.31;100650.41;5027551;28;20061;-60
2023/08/14 08:49:35;;;;;;;5.65;2.65;;;;;;;19.57;82.50;100643.47;5027911;28;20026;-62
2023/08/14 08:54:27;;;;;;;4.05;2.15;;;;;;;19.65;82.31;100657.19;5083040;22;20053;-61
2023/08/14 08:56:56;;;;;;;6.30;2.70;;;;;;;19.72;82.38;100647.25;5046846;28;20043;-60
2023/08/14 08:59:22;;;;;;;5.82;2.63;;;;;;;19.94;82.35;100652.44;5047851;28;20508;-61
2023/08/14 09:01:48;;;;;;;7.65;2.58;;;;;;;20.11;81.50;100657.91;5047974;28;20040;-60
2023/08/14 09:04:14;;;;;;;7.88;3.28;;;;;;;20.24;80.88;100656.44;5047696;28;20029;-61
2023/08/14 09:06:39;;;;;;;3.95;2.45;;;;;;;20.35;80.73;100642.75;5047857;28;20531;-60
2023/08/14 09:09:06;;;;;;;4.50;2.83;;;;;;;20.50;79.20;100649.09;5047836;28;20025;-60
2023/08/14 09:11:32;;;;;;;5.25;2.53;;;;;;;20.61;77.24;100650.38;5047925;28;20021;-61
2023/08/14 09:13:58;;;;;;;4.25;2.25;;;;;;;20.66;76.37;100645.75;5047512;28;20032;-62
2023/08/14 09:16:24;;;;;;;4.68;2.17;;;;;;;20.77;77.27;100646.09;5047938;28;20022;-60
2023/08/14 09:18:49;;;;;;;5.28;2.33;;;;;;;21.02;77.23;100644.94;5047771;28;20028;-62
2023/08/14 09:21:15;;;;;;;4.13;2.33;;;;;;;21.70;77.04;100653.06;5049042;23;20177;-71
2023/08/14 09:23:42;;;;;;;2.75;2.10;;;;;;;21.96;75.12;100656.16;5048604;23;20104;-60
2023/08/14 09:26:08;;;;;;;4.22;2.03;;;;;;;21.92;75.43;100651.97;5045824;28;20025;-60
2023/08/14 09:28:35;;;;;;;2.67;1.98;;;;;;;22.05;75.53;100657.44;5046499;28;20090;-61
2023/08/14 09:31:10;;;;;;;3.38;2.20;;;;;;;22.18;73.35;100647.09;5047448;28;20025;-62
2023/08/14 09:33:40;;;;;;;4.35;2.28;;;;;;;22.11;71.70;100648.34;5047158;28;20114;-62
2023/08/14 09:36:06;;;;;;;2.28;1.58;;;;;;;22.16;70.26;100657.75;5047477;28;20029;-62
2023/08/14 09:38:32;;;;;;;2.17;1.83;;;;;;;22.44;68.62;100650.09;5047049;28;20036;-61
2023/08/14 09:40:59;;;;;;;8.45;2.40;;;;;;;22.72;68.25;100645.94;5047179;28;20021;-62
2023/08/14 09:43:25;;;;;;;5.25;2.15;;;;;;;23.22;69.42;100637.84;5046963;28;20068;-61
2023/08/14 09:45:52;;;;;;;5.88;1.88;;;;;;;24.36;64.24;100638.19;5046993;28;20036;-61
2023/08/14 09:48:18;;;;;;;4.05;1.83;;;;;;;24.74;63.12;100629.59;5047034;28;20025;-61
2023/08/14 09:50:50;;;;;;;10.63;1.95;;;;;;;25.43;59.83;100645.50;5047238;28;20029;-62
2023/08/14 09:53:16;;;;;;;5.78;1.67;;;;;;;25.81;57.07;100635.88;5046844;28;20071;-62
2023/08/14 09:55:42;;;;;;;2.13;1.50;;;;;;;26.36;58.75;100622.31;5047046;28;20025;-61
2023/08/14 09:58:07;;;;;;;1.90;1.30;;;;;;;27.32;52.70;100635.72;5046682;28;20021;-61
2023/08/14 10:00:33;;;;;;;4.43;1.38;;;;;;;27.56;51.28;100636.63;5046197;28;20029;-62
2023/08/14 10:02:59;;;;;;;1.67;1.27;;;;;;;27.30;51.14;100632.31;5045549;28;20048;-62
2023/08/14 10:05:25;;;;;;;2.03;1.10;;;;;;;27.01;52.41;100632.72;5046792;28;20025;-62
2023/08/14 10:07:53;;;;;;;3.83;1.67;;;;;;;26.40;52.75;100638.91;5046535;28;20032;-60
2023/08/14 10:10:20;;;;;;;1.60;1.15;;;;;;;25.93;53.86;100632.34;5046720;28;20021;-61
2023/08/14 10:12:51;;;;;;;1.55;1.02;;;;;;;25.93;54.80;100634.16;5046345;28;20045;-62
2023/08/14 10:15:24;;;;;;;2.33;1.00;;;;;;;26.72;54.54;100628.59;5046514;28;20112;-62
2023/08/14 10:17:55;;;;;;;1.50;0.93;;;;;;;27.62;52.48;100629.97;5046540;28;20048;-61
2023/08/14 10:20:22;;;;;;;1.38;1.00;;;;;;;27.86;52.71;100637.06;5046641;28;20465;-61
2023/08/14 10:22:49;;;;;;;1.65;0.85;;;;;;;28.23;51.03;100631.44;5046082;28;20045;-61
2023/08/14 10:25:15;;;;;;;2.38;1.38;;;;;;;28.86;49.32;100631.81;5046374;28;20033;-61
2023/08/14 10:27:42;;;;;;;2.72;1.27;;;;;;;29.02;48.45;100629.59;5046111;28;20413;-61
2023/08/14 10:30:08;;;;;;;2.80;1.15;;;;;;;29.36;47.68;100630.38;5046157;28;20029;-61
2023/08/14 10:32:35;;;;;;;7.28;1.58;;;;;;;29.74;46.73;100644.13;5046279;28;20032;-61
2023/08/14 10:35:01;;;;;;;3.40;1.63;;;;;;;29.75;45.92;100652.03;5045963;28;20053;-61
2023/08/14 10:37:29;;;;;;;2.10;1.10;;;;;;;29.71;45.47;100639.91;5046181;28;20037;-61
2023/08/14 10:40:13;;;;;;;3.50;1.17;;;;;;;29.78;44.23;100646.41;5045935;28;20036;-61
2023/08/14 10:42:44;;;;;;;3.25;1.33;;;;;;;29.39;44.54;100644.34;5045901;28;20024;-59
2023/08/14 10:45:11;;;;;;;2.88;0.95;;;;;;;29.41;45.97;100633.53;5045958;28;20021;-61
2023/08/14 10:47:41;;;;;;;2.42;1.42;;;;;;;29.68;45.55;100642.84;5045855;28;20025;-61
2023/08/14 10:50:19;;;;;;;9.35;1.38;;;;;;;29.90;45.76;100654.34;5045436;28;20087;-61
2023/08/14 10:52:46;;;;;;;2.33;1.08;;;;;;;30.18;44.05;100659.94;5045904;28;20401;-60
2023/08/14 10:55:17;;;;;;;1.50;0.95;;;;;;;30.10;43.07;100654.44;5045801;28;20119;-62
2023/08/14 10:57:42;;;;;;;4.50;1.40;;;;;;;29.76;43.74;100652.88;5045415;28;20021;-60
2023/08/14 11:00:28;;;;;;;2.15;1.40;;;;;;;29.69;42.75;100647.22;5045640;28;20055;-61
2023/08/14 11:03:03;;;;;;;2.00;1.08;;;;;;;29.31;44.73;100657.50;5045440;28;20045;-60
2023/08/14 11:05:36;;;;;;;3.70;1.42;;;;;;;29.40;45.63;100655.88;5045676;28;20029;-60
2023/08/14 11:08:01;;;;;;;1.85;1.00;;;;;;;29.16;45.69;100641.78;5045681;28;20049;-61
2023/08/14 11:10:27;;;;;;;1.77;1.35;;;;;;;28.77;44.96;100652.13;5045592;28;20032;-61
2023/08/14 11:12:54;;;;;;;7.65;1.33;;;;;;;28.23;44.98;100647.47;5045263;28;20025;-61
2023/08/14 11:15:23;;;;;;;5.30;1.63;;;;;;;28.04;44.05;100648.94;5045716;28;20060;-61
2023/08/14 11:17:49;;;;;;;6.70;1.70;;;;;;;27.74;44.53;100633.53;5045498;28;20077;-61
2023/08/14 11:20:14;;;;;;;3.72;1.40;;;;;;;27.55;44.89;100650.94;5045769;28;20052;-61
2023/08/14 11:22:46;;;;;;;5.78;1.13;;;;;;;27.29;45.76;100645.75;5045146;28;20121;-60
2023/08/14 11:25:15;;;;;;;3.47;1.05;;;;;;;27.02;47.20;100646.88;5045282;28;20030;-60